• Join FlightAware (Why Join?)
  • Login
  • US Flag 
08:54PM EDT


 

Airport Tracker/Info


-or-


 

Live Flight TrackerFlight Track Log ✈ CHH7967 ✈ 14-Sep-2013 ✈ ZBAA / PEK - UIII / IKT

Flight Track Log - Related Links

Times and Time Zones

All times are in EDT time to prevent confusion due to time zone crossing. See the CHH7967 flight status page for this flight to view local times or setup timezone preferences in your user account.

Time Position Orientation Groundspeed Altitude Reporting Facility
EDT Latitude Longitude Course Direction KTS MPH feet Rate Location/Type
10:11PM 40.1530 116.5285 330° Northwest  Level Estimated
10:12PM 40.2258 116.4724 330° Northwest  Level Estimated
10:13PM 40.2986 116.4161 329° Northwest  Level Estimated
10:14PM 40.3714 116.3598 329° Northwest  Level Estimated
10:15PM 40.4441 116.3033 329° Northwest  Level Estimated
10:16PM 40.5168 116.2466 329° Northwest  Level Estimated
10:17PM 40.5895 116.1899 329° Northwest  Level Estimated
10:18PM 40.6622 116.1330 329° Northwest  Level Estimated
10:19PM 40.7348 116.0760 329° Northwest  Level Estimated
10:20PM 40.8074 116.0189 329° Northwest  Level Estimated
10:21PM 40.8800 115.9616 329° Northwest  Level Estimated
10:22PM 40.9525 115.9043 329° Northwest  Level Estimated
10:23PM 41.0251 115.8468 329° Northwest  Level Estimated
10:24PM 41.0975 115.7891 329° Northwest  Level Estimated
10:25PM 41.1700 115.7314 329° Northwest  Level Estimated
10:26PM 41.2424 115.6735 329° Northwest  Level Estimated
10:27PM 41.3148 115.6155 329° Northwest  Level Estimated
10:28PM 41.3872 115.5574 329° Northwest  Level Estimated
10:29PM 41.4596 115.4991 329° Northwest  Level Estimated
10:30PM 41.5319 115.4407 329° Northwest  Level Estimated
10:31PM 41.6042 115.3822 329° Northwest  Level Estimated
10:32PM 41.6764 115.3235 329° Northwest  Level Estimated
10:33PM 41.7487 115.2647 329° Northwest  Level Estimated
10:34PM 41.8209 115.2058 329° Northwest  Level Estimated
10:35PM 41.8930 115.1467 329° Northwest  Level Estimated
10:36PM 41.9652 115.0875 329° Northwest  Level Estimated
10:37PM 42.0373 115.0282 329° Northwest  Level Estimated
10:38PM 42.1094 114.9688 329° Northwest  Level Estimated
10:39PM 42.1814 114.9092 328° Northwest  Level Estimated
10:40PM 42.2534 114.8494 328° Northwest  Level Estimated
10:41PM 42.3254 114.7896 328° Northwest  Level Estimated
10:42PM 42.3974 114.7296 328° Northwest  Level Estimated
10:43PM 42.4693 114.6694 328° Northwest  Level Estimated
10:44PM 42.5412 114.6092 328° Northwest  Level Estimated
10:45PM 42.6130 114.5487 328° Northwest  Level Estimated
10:46PM 42.6849 114.4882 328° Northwest  Level Estimated
10:47PM 42.7566 114.4275 328° Northwest  Level Estimated
10:48PM 42.8284 114.3666 328° Northwest  Level Estimated
10:49PM 42.9001 114.3057 328° Northwest  Level Estimated
10:50PM 42.9718 114.2445 328° Northwest  Level Estimated
10:51PM 43.0435 114.1833 328° Northwest  Level Estimated
10:52PM 43.1151 114.1219 328° Northwest  Level Estimated
10:53PM 43.1867 114.0603 328° Northwest  Level Estimated
10:54PM 43.2583 113.9986 328° Northwest  Level Estimated
10:55PM 43.3298 113.9368 328° Northwest  Level Estimated
10:56PM 43.4013 113.8748 328° Northwest  Level Estimated
10:57PM 43.4728 113.8127 328° Northwest  Level Estimated
10:58PM 43.5442 113.7504 328° Northwest  Level Estimated
10:59PM 43.6156 113.6880 328° Northwest  Level Estimated
11:00PM 43.6994 113.6144 328° Northwest  Level Estimated
11:01PM 43.7832 113.5407 328° Northwest  Level Estimated
11:02PM 43.8669 113.4668 328° Northwest  Level Estimated
11:03PM 43.9506 113.3927 327° Northwest  Level Estimated
11:04PM 44.0342 113.3183 327° Northwest  Level Estimated
11:05PM 44.1178 113.2438 327° Northwest  Level Estimated
11:06PM 44.2013 113.1690 327° Northwest  Level Estimated
11:07PM 44.2848 113.0940 327° Northwest  Level Estimated
11:08PM 44.3682 113.0189 327° Northwest  Level Estimated
11:09PM 44.4516 112.9435 327° Northwest  Level Estimated
11:10PM 44.5349 112.8678 327° Northwest  Level Estimated
11:11PM 44.6182 112.7920 327° Northwest  Level Estimated
11:12PM 44.7015 112.7160 327° Northwest  Level Estimated
11:13PM 44.7846 112.6397 327° Northwest  Level Estimated
11:14PM 44.8678 112.5632 327° Northwest  Level Estimated
11:15PM 44.9508 112.4865 327° Northwest  Level Estimated
11:16PM 45.0339 112.4096 327° Northwest  Level Estimated
11:17PM 45.1168 112.3324 327° Northwest  Level Estimated
11:18PM 45.1997 112.2550 327° Northwest  Level Estimated
11:19PM 45.2826 112.1774 327° Northwest  Level Estimated
11:20PM 45.3654 112.0996 327° Northwest  Level Estimated
11:21PM 45.4482 112.0215 327° Northwest  Level Estimated
11:22PM 45.5309 111.9432 326° Northwest  Level Estimated
11:23PM 45.6135 111.8647 326° Northwest  Level Estimated
11:24PM 45.6962 111.7859 326° Northwest  Level Estimated
11:25PM 45.7787 111.7069 326° Northwest  Level Estimated
11:26PM 45.8612 111.6277 326° Northwest  Level Estimated
11:27PM 45.9436 111.5483 326° Northwest  Level Estimated
11:28PM 46.0260 111.4686 326° Northwest  Level Estimated
11:29PM 46.1083 111.3886 326° Northwest  Level Estimated
11:30PM 46.1906 111.3085 326° Northwest  Level Estimated
11:31PM 46.2728 111.2281 326° Northwest  Level Estimated
11:32PM 46.3550 111.1474 326° Northwest  Level Estimated
11:33PM 46.4371 111.0665 326° Northwest  Level Estimated
11:34PM 46.5191 110.9854 326° Northwest  Level Estimated
11:35PM 46.6011 110.9040 326° Northwest  Level Estimated
11:36PM 46.6830 110.8224 326° Northwest  Level Estimated
11:37PM 46.7649 110.7405 326° Northwest  Level Estimated
11:38PM 46.8467 110.6583 326° Northwest  Level Estimated
11:39PM 46.9285 110.5760 325° Northwest  Level Estimated
11:40PM 47.0102 110.4933 325° Northwest  Level Estimated
11:41PM 47.0918 110.4105 325° Northwest  Level Estimated
11:42PM 47.1734 110.3273 325° Northwest  Level Estimated
11:43PM 47.2549 110.2439 325° Northwest  Level Estimated
11:44PM 47.3363 110.1603 325° Northwest  Level Estimated
11:45PM 47.4177 110.0764 325° Northwest  Level Estimated
11:46PM 47.4990 109.9922 325° Northwest  Level Estimated
11:47PM 47.5803 109.9078 325° Northwest  Level Estimated
11:48PM 47.6615 109.8231 325° Northwest  Level Estimated
11:49PM 47.7427 109.7381 325° Northwest  Level Estimated
11:50PM 47.8237 109.6529 325° Northwest  Level Estimated
11:51PM 47.9048 109.5674 325° Northwest  Level Estimated
11:52PM 47.9857 109.4817 325° Northwest  Level Estimated
11:53PM 48.0666 109.3956 325° Northwest  Level Estimated
11:54PM 48.1474 109.3093 325° Northwest  Level Estimated
11:55PM 48.2282 109.2227 324° Northwest  Level Estimated
11:56PM 48.3089 109.1359 324° Northwest  Level Estimated
11:57PM 48.3895 109.0488 324° Northwest  Level Estimated
11:58PM 48.4701 108.9614 324° Northwest  Level Estimated
11:59PM 48.5506 108.8737 324° Northwest  Level Estimated
12:00AM 48.6310 108.7858 324° Northwest  Level Estimated
12:01AM 48.7114 108.6975 324° Northwest  Level Estimated
12:02AM 48.7917 108.6090 324° Northwest  Level Estimated
12:03AM 48.8719 108.5202 324° Northwest  Level Estimated
12:04AM 48.9521 108.4312 324° Northwest  Level Estimated
12:05AM 49.0322 108.3418 324° Northwest  Level Estimated
12:06AM 49.1122 108.2521 324° Northwest  Level Estimated
12:07AM 49.1921 108.1622 324° Northwest  Level Estimated
12:08AM 49.2720 108.0719 324° Northwest  Level Estimated
12:09AM 49.3518 107.9814 324° Northwest  Level Estimated
12:10AM 49.4315 107.8906 323° Northwest  Level Estimated
12:11AM 49.5112 107.7995 323° Northwest  Level Estimated
12:12AM 49.5908 107.7081 323° Northwest  Level Estimated
12:13AM 49.6703 107.6163 323° Northwest  Level Estimated
12:14AM 49.7498 107.5243 323° Northwest  Level Estimated
12:15AM 49.8292 107.4320 323° Northwest  Level Estimated
12:16AM 49.9085 107.3394 323° Northwest  Level Estimated
12:17AM 49.9877 107.2464 323° Northwest  Level Estimated
12:18AM 50.0669 107.1532 323° Northwest  Level Estimated
12:19AM 50.1460 107.0597 323° Northwest  Level Estimated
12:20AM 50.2250 106.9658 323° Northwest  Level Estimated
12:21AM 50.3039 106.8717 323° Northwest  Level Estimated
12:22AM 50.3827 106.7772 323° Northwest  Level Estimated
12:23AM 50.4615 106.6824 323° Northwest  Level Estimated
12:24AM 50.5402 106.5873 322° Northwest  Level Estimated
12:25AM 50.6188 106.4919 322° Northwest  Level Estimated
12:26AM 50.6974 106.3961 322° Northwest  Level Estimated
12:27AM 50.7758 106.3001 322° Northwest  Level Estimated
12:28AM 50.8542 106.2037 322° Northwest  Level Estimated
12:29AM 50.9325 106.1070 322° Northwest  Level Estimated
12:30AM 51.0108 106.0099 322° Northwest  Level Estimated
12:31AM 51.0889 105.9126 322° Northwest  Level Estimated
12:32AM 51.1670 105.8149 322° Northwest  Level Estimated
12:33AM 51.2450 105.7169 322° Northwest  Level Estimated
12:34AM 51.3229 105.6185 322° Northwest  Level Estimated
12:35AM 51.4007 105.5198 322° Northwest  Level Estimated
12:36AM 51.4784 105.4208 322° Northwest  Level Estimated
12:37AM 51.5561 105.3214 322° Northwest  Level Estimated
12:38AM 51.6337 105.2217 321° Northwest  Level Estimated
12:39AM 51.7111 105.1217 321° Northwest  Level Estimated
12:40AM 51.7885 105.0213 321° Northwest  Level Estimated
12:41AM 51.8658 104.9205 321° Northwest  Level Estimated
12:42AM 51.9431 104.8194 321° Northwest  Level Estimated
12:43AM 52.0202 104.7180 321° Northwest  Level Estimated
12:44AM 52.0973 104.6162 321° Northwest  Level Estimated
12:45AM 52.1742 104.5141 321° Northwest  Level Estimated
12:46AM 52.2511 104.4116 321° Northwest  Level Estimated
12:47AM 52.2680 104.3890 321° Northwest  Level Estimated
12:48AM 52.2680 104.3890 237° Southwest  Level Estimated
12:49AM 52.2680 104.3890 237° Southwest  Level Estimated
12:50AM 52.2680 104.3890 237° Southwest  Level Estimated
12:50AM 51.4980 105.2450 237° Southwest 311 358 18,000  Level FlightAware
12:51AM 52.2680 104.3890 237° Southwest  Level Estimated
12:51AM 51.5400 105.2010 327° Northwest 299 344 18,000  Level FlightAware
12:51AM 51.5830 105.1560 327° Northwest 297 342 17,100 -1,680 Descending FlightAware
12:52AM 51.6220 105.1250 334° Northwest 301 346 16,000 -2,160 Descending FlightAware
12:53AM 51.6760 105.0810 333° Northwest 309 356 14,300 -2,340 Descending FlightAware
12:53AM 51.7170 105.0480 333° Northwest 313 360 13,200 -2,220 Descending FlightAware
12:54AM 51.7660 105.0080 333° Northwest 306 352 11,900 -1,920 Descending FlightAware
12:54AM 51.8120 104.9710 334° Northwest 296 341 10,900 -1,500 Descending FlightAware
12:55AM 51.8520 104.9370 332° Northwest 286 329 10,100 -960 Descending FlightAware
12:55AM 51.8790 104.9160 334° Northwest 265 305 10,000 -480 Descending FlightAware
12:56AM 51.8960 104.9010 331° Northwest 251 289 9,800 -900 Descending FlightAware
12:56AM 51.9150 104.8860 334° Northwest 246 283 9,500 -1,200 Descending FlightAware
12:56AM 51.9340 104.8700 333° Northwest 241 277 9,100 -1,140 Descending FlightAware
12:57AM 51.9520 104.8560 334° Northwest 238 274 8,800 -1,020 Descending FlightAware
12:57AM 51.9740 104.8380 333° Northwest 233 268 8,400 -1,080 Descending FlightAware
12:57AM 51.9860 104.8280 333° Northwest 230 265 8,200 -720 Descending FlightAware
12:58AM 52.0080 104.8100 333° Northwest 209 241 8,000 -300 Descending FlightAware
12:58AM 52.0220 104.7980 332° Northwest 188 216 8,000 -240 Level FlightAware
12:58AM 52.0290 104.7920 332° Northwest 183 211 7,900 -1,020 Descending FlightAware
12:58AM 52.0490 104.7760 334° Northwest 183 211 7,400 -1,200 Descending FlightAware
12:59AM 52.0630 104.7650 334° Northwest 183 211 7,100 -1,020 Descending FlightAware
12:59AM 52.0770 104.7550 336° Northwest 182 209 6,800 -1,020 Descending FlightAware
12:59AM 52.0870 104.7470 334° Northwest 182 209 6,600 -1,020 Descending FlightAware
01:00AM 52.1080 104.7300 334° Northwest 182 209 6,100 -1,080 Descending FlightAware
01:00AM 52.1230 104.7180 334° Northwest 184 212 5,800 -1,020 Descending FlightAware
01:00AM 52.1420 104.7010 331° Northwest 188 216 5,400 -840 Descending FlightAware
01:01AM 52.1500 104.6950 335° Northwest 188 216 5,300 -720 Descending FlightAware
01:01AM 52.1700 104.6760 330° Northwest 189 217 5,000 -660 Descending FlightAware
01:01AM 52.1870 104.6610 332° Northwest 189 217 4,800 -480 Descending FlightAware
01:02AM 52.2000 104.6450 323° Northwest 185 213 4,700 -540 Descending FlightAware
01:02AM 52.2020 104.6380 295° West 186 214 4,600 -600 Descending FlightAware
01:02AM 52.2100 104.6080 294° West 174 200 4,400 -600 Descending FlightAware
01:03AM 52.2160 104.5860 294° West 165 190 4,200 -1,020 Descending FlightAware
01:03AM 52.2250 104.5520 293° West 158 182 3,600 -1,020 Descending FlightAware
01:03AM 52.2280 104.5410 294° West 157 181 3,500 -720 Descending FlightAware
01:04AM 52.2350 104.5160 295° West 159 183 3,200 -900 Descending FlightAware
01:04AM 52.2400 104.4950 291° West 161 185 2,900 -1,020 Descending FlightAware
01:04AM 52.2460 104.4760 297° West 163 188 2,600 -1,020 Descending FlightAware
01:05AM 52.2510 104.4550 291° West 162 186 2,300 -1,020 Descending FlightAware
01:05AM 52.2570 104.4340 295° West 159 183 2,000 -1,020 Descending FlightAware
01:06AM 52.2690 104.3900 294° West 151 174 -2,520 Descending FlightAware
01:06AM 52.2710 104.3810 290° West 151 174  Level FlightAware
01:06AM 52.2720 104.3770 292° West 151 174  Level FlightAware
01:07AM 52.2710 104.3750 231° Southwest 151 174  Level FlightAware
01:07AM 52.2730 104.3990 82° East 151 174  Level FlightAware
01:08AM 52.2700 104.3720 260° West 151 174  Level FlightAware
01:08AM 52.2700 104.3700 270° West 151 174  Level FlightAware
01:08AM 52.2710 104.3690 329° Northwest 151 174  Level FlightAware
01:09AM 52.2710 104.3670 270° West 151 174  Level FlightAware
01:10AM 52.2770 104.3450 294° West 151 174  Level FlightAware
01:10AM 52.2710 104.3670 114° Southeast 151 174  Level FlightAware
01:11AM 52.2710 104.3680 90° East 151 174  Level FlightAware
01:11AM 52.2650 104.3920 112° Southeast 151 174  Level FlightAware
01:11AM 52.2710 104.3680 292° West 151 174  Level FlightAware
01:12AM 52.2770 104.3430 291° West 151 174  Level FlightAware
01:14AM 52.2680 104.3890 108° East  Level Estimated